Dogpatch, Arkansas
Current Conditions -  °F | °C
As of 4:53 PM on Thursday 27 Nov 2014 (Local Time) from KHRO Reporting Station
Clear Clear  
Wind Chill: 39°   Ceiling: Unl
Heat Index: 39°   Visibility: 10mi
Dew Point: 20°   Wind: 3mph
Humidity: 46%   Direction: 40°NE
Pressure: 30.41"   Gusts: NA
Location:  36.0842°N, 93.1502°W
Report Text: KHRO 272253Z AUTO 04003KT 10SM CLR 04/M07 A3041 RMK AO2 SLP305 T00391067
Loading
Personal Weather Stations






























Interactive Weather Map New forecast layout! Learn more

10-Day Weather Forecast

Advertisements
Track Severe Weather on mobile